Time;durP1;ratioP1;P1;durP2;ratioP2;P2;SDS_P1;SDS_P2;PMS_P1;PMS_P2;Temp;Humidity;BMP_temperature;BMP_pressure;BME280_temperature;BME280_humidity;BME280_pressure;Samples;Min_cycle;Max_cycle;Signal;HPM_P1;HPM_P2
2023/03/27 00:00:25;;;;;;;6.10;2.13;;;6.60;99.90;;;;;;5034794;28;20451;-49
2023/03/27 00:02:52;;;;;;;12.23;2.93;;;5.90;99.90;;;;;;5035208;28;20523;-48
2023/03/27 00:05:19;;;;;;;4.23;2.03;;;6.30;99.90;;;;;;5034991;28;20454;-47
2023/03/27 00:07:47;;;;;;;5.37;2.37;;;6.20;99.90;;;;;;5035198;28;21025;-47
2023/03/27 00:10:14;;;;;;;8.80;2.40;;;6.10;99.90;;;;;;5034680;28;20410;-47
2023/03/27 00:12:43;;;;;;;5.10;2.23;;;5.80;99.90;;;;;;5034921;28;20443;-49
2023/03/27 00:15:15;;;;;;;6.63;2.27;;;6.00;99.90;;;;;;5035095;28;20466;-51
2023/03/27 00:17:45;;;;;;;5.83;1.80;;;6.10;99.90;;;;;;5034862;28;20502;-47
2023/03/27 00:20:13;;;;;;;10.20;2.30;;;5.70;99.90;;;;;;5034425;28;20433;-48
2023/03/27 00:22:39;;;;;;;4.87;1.90;;;5.60;99.90;;;;;;5034783;28;20450;-51
2023/03/27 00:25:07;;;;;;;7.20;3.00;;;6.00;99.90;;;;;;5034671;28;20773;-48
2023/03/27 00:27:33;;;;;;;7.80;2.57;;;5.80;99.90;;;;;;5034476;28;20838;-50
2023/03/27 00:30:00;;;;;;;6.60;2.13;;;5.50;99.90;;;;;;5015513;28;20430;-48
2023/03/27 00:32:27;;;;;;;3.80;1.90;;;5.70;99.90;;;;;;5016831;28;20459;-50
2023/03/27 00:34:55;;;;;;;4.77;2.00;;;6.00;99.90;;;;;;5034571;28;20448;-48
2023/03/27 00:37:22;;;;;;;7.80;2.30;;;5.90;99.90;;;;;;5034673;28;20412;-49
2023/03/27 00:39:49;;;;;;;7.57;2.23;;;5.70;99.90;;;;;;5016511;28;20498;-47
2023/03/27 00:42:21;;;;;;;7.60;2.10;;;6.00;99.90;;;;;;5034604;28;20421;-49
2023/03/27 00:44:48;;;;;;;4.53;1.90;;;6.30;99.90;;;;;;5017291;28;20448;-50
2023/03/27 00:47:16;;;;;;;6.37;2.40;;;5.70;99.90;;;;;;5035526;28;20547;-48
2023/03/27 00:49:43;;;;;;;8.43;1.93;;;5.60;99.90;;;;;;5034087;28;20520;-48
2023/03/27 00:52:12;;;;;;;7.97;2.10;;;5.80;99.90;;;;;;5034567;28;20445;-48
2023/03/27 00:54:39;;;;;;;5.87;2.27;;;5.70;99.90;;;;;;5016536;28;20424;-47
2023/03/27 00:57:09;;;;;;;7.50;2.40;;;5.80;99.90;;;;;;5016598;28;20415;-48
2023/03/27 00:59:41;;;;;;;6.80;2.37;;;5.90;99.90;;;;;;5016058;28;20576;-48
2023/03/27 01:02:12;;;;;;;6.90;2.40;;;6.10;99.90;;;;;;5034212;28;20402;-48
2023/03/27 01:04:41;;;;;;;6.00;2.90;;;5.70;99.90;;;;;;5016044;28;20506;-48
2023/03/27 01:07:28;;;;;;;9.37;2.80;;;5.90;99.90;;;;;;5016035;28;20969;-47
2023/03/27 01:09:59;;;;;;;5.07;2.00;;;5.80;99.90;;;;;;5015978;28;20504;-47
2023/03/27 01:12:41;;;;;;;5.03;2.20;;;5.70;99.90;;;;;;5016067;28;20426;-48
2023/03/27 01:15:23;;;;;;;5.97;2.07;;;5.70;99.90;;;;;;5016141;28;20443;-48
2023/03/27 01:18:02;;;;;;;6.53;2.63;;;5.50;99.90;;;;;;5016030;28;20449;-48
2023/03/27 01:21:05;;;;;;;3.60;1.80;;;5.40;99.90;;;;;;5016008;28;20434;-49
2023/03/27 01:23:55;;;;;;;4.77;1.90;;;5.70;99.90;;;;;;5015994;28;20535;-49
2023/03/27 01:26:57;;;;;;;5.10;2.43;;;5.30;99.90;;;;;;5015884;28;20537;-48
2023/03/27 01:29:35;;;;;;;4.97;1.90;;;5.30;99.90;;;;;;5015529;28;20474;-47
2023/03/27 01:32:35;;;;;;;9.27;2.93;;;5.40;99.90;;;;;;5015829;28;20846;-48
2023/03/27 01:35:26;;;;;;;6.57;2.20;;;5.40;99.90;;;;;;5015635;28;20452;-47
2023/03/27 01:38:14;;;;;;;7.60;2.70;;;5.60;99.90;;;;;;5033382;28;20201;-47
2023/03/27 01:40:47;;;;;;;8.30;2.00;;;5.30;99.90;;;;;;5033203;28;20917;-50
2023/03/27 01:43:19;;;;;;;5.63;2.13;;;5.80;99.90;;;;;;5015478;28;20529;-47
2023/03/27 01:45:51;;;;;;;7.10;2.20;;;5.20;99.90;;;;;;5015547;28;20994;-49
2023/03/27 01:48:25;;;;;;;4.50;2.10;;;5.70;99.90;;;;;;5032880;28;20783;-48
2023/03/27 01:50:56;;;;;;;7.43;2.03;;;5.50;99.90;;;;;;5033020;28;20433;-48
2023/03/27 01:53:27;;;;;;;5.25;2.45;;;4.60;99.90;;;;;;5033040;28;20406;-48
2023/03/27 01:55:59;;;;;;;2.78;1.80;;;5.10;99.90;;;;;;5015272;28;20235;-48
2023/03/27 01:58:32;;;;;;;7.38;1.80;;;4.90;99.90;;;;;;5014842;28;20292;-48
2023/03/27 02:01:01;;;;;;;5.10;2.20;;;5.00;99.90;;;;;;5015194;28;20688;-48
2023/03/27 02:03:32;;;;;;;3.45;1.90;;;4.70;99.90;;;;;;5015092;28;20427;-51
2023/03/27 02:06:04;;;;;;;11.40;2.50;;;4.80;99.90;;;;;;5014996;28;20236;-48
2023/03/27 02:08:36;;;;;;;5.50;2.13;;;5.00;99.90;;;;;;5032412;28;20507;-48
2023/03/27 02:11:14;;;;;;;3.03;1.77;;;5.10;99.90;;;;;;5015045;28;20669;-48
2023/03/27 02:13:45;;;;;;;4.18;1.80;;;4.80;99.90;;;;;;5015005;28;20551;-48
2023/03/27 02:16:17;;;;;;;4.80;2.20;;;4.60;99.90;;;;;;5014945;28;20221;-51
2023/03/27 02:18:49;;;;;;;4.17;1.90;;;4.30;99.90;;;;;;5014627;28;20231;-48
2023/03/27 02:21:16;;;;;;;2.50;1.85;;;4.10;99.90;;;;;;5014898;28;20522;-52
2023/03/27 02:23:43;;;;;;;3.85;1.60;;;4.70;99.90;;;;;;5014918;28;20246;-48
2023/03/27 02:26:14;;;;;;;5.05;1.90;;;4.70;99.90;;;;;;5014671;28;20229;-49
2023/03/27 02:29:00;;;;;;;2.80;1.70;;;4.90;99.90;;;;;;5014467;28;20224;-47
2023/03/27 02:31:49;;;;;;;5.25;2.13;;;4.80;99.90;;;;;;5015457;28;20201;-47
2023/03/27 02:34:33;;;;;;;2.10;1.40;;;4.90;99.90;;;;;;5015190;28;20227;-48
2023/03/27 02:37:05;;;;;;;9.93;2.03;;;4.70;99.90;;;;;;5015633;28;20296;-47
2023/03/27 02:39:57;;;;;;;3.85;1.60;;;4.60;99.90;;;;;;5032345;28;20247;-47
2023/03/27 02:42:35;;;;;;;3.92;1.77;;;4.60;99.90;;;;;;5015126;28;20291;-47
2023/03/27 02:45:10;;;;;;;2.50;1.70;;;3.90;99.90;;;;;;5015122;28;20228;-48
2023/03/27 02:47:42;;;;;;;4.55;1.70;;;4.30;99.90;;;;;;5015117;28;20311;-47
2023/03/27 02:50:13;;;;;;;5.38;2.25;;;4.50;99.90;;;;;;5014883;28;20739;-48
2023/03/27 02:52:43;;;;;;;2.10;1.45;;;4.40;99.90;;;;;;5032797;28;20224;-47
2023/03/27 02:55:15;;;;;;;3.30;1.67;;;4.10;99.90;;;;;;5032523;28;20224;-48
2023/03/27 02:57:45;;;;;;;1.70;1.45;;;4.30;99.90;;;;;;5014624;28;20251;-47
2023/03/27 03:00:27;;;;;;;2.45;2.03;;;4.10;99.90;;;;;;5014165;28;20624;-48
2023/03/27 03:03:11;;;;;;;2.08;1.30;;;4.40;99.90;;;;;;5014537;28;20607;-48
2023/03/27 03:05:38;;;;;;;2.50;1.67;;;4.10;99.90;;;;;;5031853;28;20216;-49
2023/03/27 03:08:08;;;;;;;3.67;1.80;;;4.50;99.90;;;;;;5031594;28;20231;-52
2023/03/27 03:10:36;;;;;;;3.70;1.77;;;4.40;99.90;;;;;;5032141;28;20201;-51
2023/03/27 03:13:03;;;;;;;3.00;1.92;;;4.30;99.90;;;;;;5014411;28;20239;-47
2023/03/27 03:15:30;;;;;;;3.83;1.80;;;4.20;99.90;;;;;;5032366;28;20238;-48
2023/03/27 03:17:57;;;;;;;5.53;1.60;;;4.60;99.90;;;;;;5014381;28;20200;-48
2023/03/27 03:20:28;;;;;;;3.70;1.30;;;4.30;99.90;;;;;;5014245;28;20247;-47
2023/03/27 03:22:56;;;;;;;2.65;1.30;;;3.90;99.90;;;;;;5015193;28;20259;-47
2023/03/27 03:25:22;;;;;;;2.90;1.90;;;4.10;99.90;;;;;;5014809;28;20751;-46
2023/03/27 03:27:49;;;;;;;3.58;1.30;;;4.50;99.90;;;;;;5014741;28;20731;-48
2023/03/27 03:30:18;;;;;;;2.80;1.67;;;3.60;99.90;;;;;;5032444;28;20571;-50
2023/03/27 03:32:58;;;;;;;3.25;1.60;;;4.10;99.90;;;;;;5014725;28;20196;-49
2023/03/27 03:35:26;;;;;;;3.70;1.58;;;4.20;99.90;;;;;;5032841;28;20220;-48
2023/03/27 03:37:53;;;;;;;3.83;1.63;;;4.00;99.90;;;;;;5014301;28;20578;-49
2023/03/27 03:40:21;;;;;;;2.60;1.40;;;3.80;99.90;;;;;;5013635;28;20200;-47
2023/03/27 03:42:51;;;;;;;3.92;1.70;;;3.50;99.90;;;;;;5013795;28;20205;-46
2023/03/27 03:45:24;;;;;;;4.88;1.48;;;3.90;99.90;;;;;;5013598;28;20220;-48
2023/03/27 03:47:51;;;;;;;4.75;1.80;;;3.80;99.90;;;;;;5031549;28;20197;-48
2023/03/27 03:50:17;;;;;;;3.72;1.80;;;3.80;99.90;;;;;;5031499;28;20208;-47
2023/03/27 03:52:45;;;;;;;3.25;2.03;;;3.70;99.90;;;;;;5014052;28;20700;-47
2023/03/27 03:55:14;;;;;;;2.03;1.48;;;4.00;99.90;;;;;;5014089;28;20252;-50
2023/03/27 03:57:45;;;;;;;2.60;1.65;;;3.60;99.90;;;;;;5031878;28;20200;-49
2023/03/27 04:00:17;;;;;;;2.60;1.83;;;3.60;99.90;;;;;;5013797;28;20227;-50
2023/03/27 04:02:50;;;;;;;4.88;1.67;;;3.90;99.90;;;;;;5014216;28;20209;-48
2023/03/27 04:05:17;;;;;;;2.05;1.38;;;3.70;99.90;;;;;;5018513;28;20228;-47
2023/03/27 04:07:45;;;;;;;4.35;1.90;;;3.60;99.90;;;;;;5036527;28;20192;-48
2023/03/27 04:10:23;;;;;;;2.45;2.00;;;3.30;99.90;;;;;;5019237;28;20211;-48
2023/03/27 04:12:51;;;;;;;2.05;1.65;;;3.20;99.90;;;;;;5018416;28;20583;-48
2023/03/27 04:15:32;;;;;;;3.13;1.80;;;3.70;99.90;;;;;;5017532;28;20232;-48
2023/03/27 04:18:23;;;;;;;3.95;1.70;;;3.60;99.90;;;;;;5017045;28;20262;-48
2023/03/27 04:20:50;;;;;;;4.72;1.63;;;3.70;99.90;;;;;;5017164;28;20197;-47
2023/03/27 04:23:18;;;;;;;3.15;1.65;;;3.70;99.90;;;;;;5017226;28;20688;-48
2023/03/27 04:25:47;;;;;;;5.05;2.95;;;3.40;99.90;;;;;;5017855;28;20279;-49
2023/03/27 04:28:20;;;;;;;4.97;2.08;;;3.40;99.90;;;;;;5017497;28;20640;-48
2023/03/27 04:30:51;;;;;;;6.30;1.95;;;3.50;99.90;;;;;;5017629;28;20650;-50
2023/03/27 04:33:45;;;;;;;6.93;1.92;;;3.40;99.90;;;;;;5024147;28;20216;-47
2023/03/27 04:36:31;;;;;;;3.80;1.83;;;3.40;99.90;;;;;;5034429;28;20224;-49
2023/03/27 04:39:09;;;;;;;5.03;1.83;;;3.40;99.90;;;;;;5016705;28;20196;-47
2023/03/27 04:41:37;;;;;;;9.50;2.85;;;3.10;99.90;;;;;;5016839;28;20208;-49
2023/03/27 04:44:05;;;;;;;2.40;1.73;;;3.20;99.90;;;;;;5016769;28;20209;-48
2023/03/27 04:46:31;;;;;;;7.35;2.50;;;3.30;99.90;;;;;;5034385;28;20295;-48
2023/03/27 04:49:06;;;;;;;3.42;2.42;;;3.50;99.90;;;;;;5016247;28;20221;-48
2023/03/27 04:51:52;;;;;;;4.53;2.30;;;3.20;99.90;;;;;;5016391;28;20642;-48
2023/03/27 04:54:21;;;;;;;2.17;1.70;;;3.30;99.90;;;;;;5016217;28;20288;-49
2023/03/27 04:56:48;;;;;;;4.68;2.05;;;3.20;99.90;;;;;;5016087;28;20331;-50
2023/03/27 04:59:15;;;;;;;4.30;2.17;;;3.20;99.90;;;;;;5016212;28;20658;-48
2023/03/27 05:01:45;;;;;;;3.20;1.70;;;3.30;99.90;;;;;;5015756;28;20196;-51
2023/03/27 05:04:25;;;;;;;5.40;1.92;;;3.10;99.90;;;;;;5016194;28;20228;-50
2023/03/27 05:07:14;;;;;;;3.53;1.85;;;3.40;99.90;;;;;;5016501;28;20251;-51
2023/03/27 05:09:41;;;;;;;2.88;1.70;;;3.20;99.90;;;;;;5015104;28;20639;-52
2023/03/27 05:12:09;;;;;;;5.55;2.08;;;3.40;99.90;;;;;;5015573;28;20242;-52
2023/03/27 05:14:47;;;;;;;6.00;4.00;;;3.40;99.90;;;;;;5015089;28;20613;-53
2023/03/27 05:17:28;;;;;;;4.30;2.90;;;3.50;99.90;;;;;;5015433;28;20717;-53
2023/03/27 05:19:56;;;;;;;7.00;2.65;;;3.50;99.90;;;;;;5015051;28;20225;-52
2023/03/27 05:22:23;;;;;;;5.82;3.10;;;3.50;99.90;;;;;;5033259;28;20193;-52
2023/03/27 05:24:57;;;;;;;5.28;2.50;;;3.50;99.90;;;;;;5015483;28;20290;-52
2023/03/27 05:27:46;;;;;;;4.03;2.67;;;3.30;99.90;;;;;;5015259;28;20209;-53
2023/03/27 05:30:14;;;;;;;5.32;2.80;;;3.40;99.90;;;;;;5015033;28;20232;-52
2023/03/27 05:32:47;;;;;;;4.03;2.13;;;3.20;99.90;;;;;;5014816;28;20291;-52
2023/03/27 05:35:21;;;;;;;5.43;2.30;;;3.30;99.90;;;;;;5014888;28;20232;-52
2023/03/27 05:37:51;;;;;;;4.68;2.88;;;3.30;99.90;;;;;;5015230;28;20689;-51
2023/03/27 05:40:36;;;;;;;4.13;2.45;;;3.40;99.90;;;;;;5014756;28;20209;-52
2023/03/27 05:43:03;;;;;;;4.57;2.35;;;3.50;99.90;;;;;;5032744;28;20196;-53
2023/03/27 05:45:32;;;;;;;4.88;2.33;;;3.60;99.90;;;;;;5014872;28;20271;-52
2023/03/27 05:48:02;;;;;;;5.80;2.92;;;3.30;99.90;;;;;;5013700;28;20287;-52
2023/03/27 05:50:34;;;;;;;5.82;2.65;;;3.30;99.90;;;;;;5014936;28;20739;-52
2023/03/27 05:53:06;;;;;;;9.68;3.53;;;3.20;99.90;;;;;;5014914;28;20196;-52
2023/03/27 05:55:39;;;;;;;4.85;3.25;;;2.70;99.90;;;;;;5014427;28;20224;-50
2023/03/27 05:58:08;;;;;;;5.95;3.45;;;2.70;99.90;;;;;;5013462;28;20205;-54
2023/03/27 06:00:37;;;;;;;5.60;3.67;;;3.30;99.90;;;;;;5014215;28;20201;-51
2023/03/27 06:03:04;;;;;;;4.43;3.00;;;3.30;99.90;;;;;;5014251;28;20649;-52
2023/03/27 06:05:51;;;;;;;4.65;3.50;;;3.40;99.90;;;;;;5032709;28;20282;-53
2023/03/27 06:08:19;;;;;;;4.47;2.67;;;3.40;99.90;;;;;;5013870;28;20204;-52
2023/03/27 06:10:46;;;;;;;6.90;2.97;;;3.60;99.90;;;;;;5014291;28;20225;-52
2023/03/27 06:13:26;;;;;;;4.72;2.75;;;3.90;99.90;;;;;;5013956;28;20581;-52
2023/03/27 06:15:57;;;;;;;4.43;3.03;;;3.90;99.90;;;;;;5014238;28;20247;-52
2023/03/27 06:18:43;;;;;;;5.78;2.75;;;4.10;99.90;;;;;;5014009;28;20208;-52
2023/03/27 06:21:14;;;;;;;5.47;3.10;;;4.30;99.90;;;;;;5014361;28;20262;-52
2023/03/27 06:23:42;;;;;;;2.35;1.90;;;4.20;99.90;;;;;;5014296;28;20439;-51
2023/03/27 06:26:12;;;;;;;4.88;2.30;;;4.40;99.90;;;;;;5013416;28;20229;-52
2023/03/27 06:28:39;;;;;;;2.97;2.05;;;4.30;99.90;;;;;;5012894;28;20240;-52
2023/03/27 06:31:07;;;;;;;3.95;2.47;;;4.30;99.90;;;;;;5014106;28;20200;-52
2023/03/27 06:33:34;;;;;;;4.28;2.30;;;4.70;99.90;;;;;;5031560;28;20209;-52
2023/03/27 06:36:05;;;;;;;4.10;1.95;;;4.40;99.90;;;;;;5014723;28;20228;-52
2023/03/27 06:38:37;;;;;;;5.70;2.72;;;4.60;99.90;;;;;;5013995;28;20201;-53
2023/03/27 06:41:05;;;;;;;4.05;2.40;;;4.40;99.90;;;;;;5013886;28;20626;-52
2023/03/27 06:44:07;;;;;;;8.27;3.33;;;4.70;99.90;;;;;;5013759;28;20215;-53
2023/03/27 06:46:47;;;;;;;2.92;2.30;;;4.60;99.90;;;;;;5013328;28;20232;-51
2023/03/27 06:49:17;;;;;;;6.40;2.50;;;4.90;99.90;;;;;;5013440;28;20251;-52
2023/03/27 06:51:45;;;;;;;6.82;2.42;;;4.90;99.90;;;;;;5013834;28;20667;-52
2023/03/27 06:54:13;;;;;;;3.60;2.00;;;4.90;99.90;;;;;;5013937;28;20758;-52
2023/03/27 06:56:45;;;;;;;4.10;2.28;;;4.90;99.90;;;;;;5013804;28;20720;-52
2023/03/27 06:59:16;;;;;;;8.00;2.73;;;5.00;99.90;;;;;;5013499;28;20259;-52
2023/03/27 07:01:45;;;;;;;4.30;1.90;;;4.80;99.90;;;;;;5013995;28;20463;-51
2023/03/27 07:04:24;;;;;;;4.70;2.67;;;5.20;99.90;;;;;;5013575;28;20208;-52
2023/03/27 07:07:15;;;;;;;4.80;3.20;;;5.00;99.90;;;;;;5013291;28;20572;-53
2023/03/27 07:09:44;;;;;;;3.60;2.20;;;5.00;99.90;;;;;;5013260;28;20547;-53
2023/03/27 07:12:14;;;;;;;3.40;2.33;;;4.90;99.90;;;;;;5013500;28;20204;-53
2023/03/27 07:14:43;;;;;;;6.25;2.60;;;4.80;99.90;;;;;;5013140;28;20495;-52
2023/03/27 07:17:10;;;;;;;6.28;2.55;;;4.90;99.90;;;;;;5013337;28;20648;-52
2023/03/27 07:19:49;;;;;;;4.50;2.58;;;5.00;99.90;;;;;;5012763;28;20554;-53
2023/03/27 07:22:17;;;;;;;7.77;2.30;;;4.90;99.90;;;;;;5012860;28;20278;-52
2023/03/27 07:24:46;;;;;;;5.40;2.57;;;4.90;99.90;;;;;;5013313;28;20467;-53
2023/03/27 07:27:15;;;;;;;4.33;2.33;;;5.10;99.90;;;;;;5013141;28;20452;-52
2023/03/27 07:29:42;;;;;;;7.33;2.13;;;5.00;99.90;;;;;;5012691;28;20479;-53
2023/03/27 07:32:15;;;;;;;12.23;2.63;;;5.00;99.90;;;;;;5013615;28;20455;-53
2023/03/27 07:34:51;;;;;;;9.00;3.13;;;5.00;99.90;;;;;;5013114;28;20228;-53
2023/03/27 07:37:39;;;;;;;5.78;2.45;;;5.30;99.90;;;;;;5030629;28;20434;-52
2023/03/27 07:40:37;;;;;;;4.60;2.53;;;5.60;99.90;;;;;;5025363;28;20206;-52
2023/03/27 07:43:23;;;;;;;3.67;1.70;;;5.50;99.90;;;;;;5035168;28;20808;-53
2023/03/27 07:45:50;;;;;;;4.38;1.83;;;5.60;99.70;;;;;;5016787;28;20590;-52
2023/03/27 07:48:17;;;;;;;3.10;1.40;;;5.50;99.50;;;;;;5016868;28;20198;-53
2023/03/27 07:50:46;;;;;;;2.87;1.77;;;5.80;99.60;;;;;;5017173;28;20892;-52
2023/03/27 07:53:15;;;;;;;5.53;2.40;;;5.80;99.30;;;;;;5016878;28;20481;-51
2023/03/27 07:55:51;;;;;;;3.43;1.80;;;5.50;99.40;;;;;;5017026;28;20526;-52
2023/03/27 07:58:20;;;;;;;2.83;1.57;;;5.50;98.00;;;;;;5016643;28;20443;-52
2023/03/27 08:00:50;;;;;;;2.43;1.40;;;5.70;98.00;;;;;;5017287;28;20872;-52
2023/03/27 08:03:18;;;;;;;4.60;1.90;;;5.40;96.60;;;;;;5016728;28;20983;-52
2023/03/27 08:05:53;;;;;;;2.30;1.60;;;5.30;97.10;;;;;;5016799;28;20476;-52
2023/03/27 08:08:20;;;;;;;4.60;2.03;;;5.50;97.20;;;;;;5015472;28;20532;-51
2023/03/27 08:10:58;;;;;;;3.60;2.20;;;5.80;97.30;;;;;;5017126;28;20229;-52
2023/03/27 08:13:29;;;;;;;2.90;1.80;;;5.80;97.20;;;;;;5016655;28;20806;-53
2023/03/27 08:16:06;;;;;;;4.17;2.87;;;5.60;97.20;;;;;;5016356;28;20840;-51
2023/03/27 08:18:35;;;;;;;2.83;1.70;;;5.80;97.30;;;;;;5016310;28;20452;-52
2023/03/27 08:21:03;;;;;;;3.13;2.03;;;5.90;97.60;;;;;;5016750;28;20506;-51
2023/03/27 08:23:32;;;;;;;2.77;1.90;;;5.80;97.40;;;;;;5016827;28;20427;-52
2023/03/27 08:26:10;;;;;;;7.93;1.80;;;5.80;96.80;;;;;;5034420;28;20445;-54
2023/03/27 08:28:44;;;;;;;5.03;2.03;;;6.00;96.80;;;;;;5016530;28;20471;-52
2023/03/27 08:31:13;;;;;;;4.07;1.37;;;5.90;96.50;;;;;;5016253;28;20457;-52
2023/03/27 08:33:42;;;;;;;2.90;1.23;;;5.90;95.60;;;;;;5016402;28;20431;-51
2023/03/27 08:36:14;;;;;;;1.93;1.43;;;6.00;95.60;;;;;;5016371;28;20490;-52
2023/03/27 08:38:43;;;;;;;1.90;1.57;;;5.90;95.50;;;;;;5015964;28;20951;-52
2023/03/27 08:41:26;;;;;;;3.30;1.70;;;5.70;94.70;;;;;;5016592;28;20449;-52
2023/03/27 08:44:31;;;;;;;3.47;1.30;;;5.90;94.90;;;;;;5013799;28;20969;-52
2023/03/27 08:47:04;;;;;;;4.43;1.47;;;5.60;93.70;;;;;;5016542;28;20882;-51
2023/03/27 08:49:39;;;;;;;6.17;1.57;;;5.80;93.60;;;;;;5014994;28;20455;-52
2023/03/27 08:52:26;;;;;;;8.10;2.53;;;5.70;92.80;;;;;;5016120;28;20547;-51
2023/03/27 08:55:00;;;;;;;3.53;1.97;;;6.00;93.40;;;;;;5015965;28;20529;-52
2023/03/27 08:57:37;;;;;;;3.47;1.30;;;5.90;93.10;;;;;;5015844;28;20977;-52
2023/03/27 09:00:18;;;;;;;5.80;2.50;;;6.00;93.20;;;;;;5015341;28;20474;-53
2023/03/27 09:02:53;;;;;;;2.83;1.30;;;5.70;92.70;;;;;;5016201;28;20574;-53
2023/03/27 09:05:23;;;;;;;2.00;1.40;;;5.90;92.70;;;;;;5015611;28;20491;-52
2023/03/27 09:08:00;;;;;;;3.90;2.07;;;5.90;93.20;;;;;;5015468;28;20428;-51
2023/03/27 09:10:41;;;;;;;5.57;1.37;;;5.90;93.80;;;;;;5015317;28;20447;-52
2023/03/27 09:13:28;;;;;;;5.70;2.07;;;6.40;94.50;;;;;;5015516;28;20461;-53
2023/03/27 09:16:01;;;;;;;2.10;1.53;;;6.20;94.70;;;;;;5015580;28;20454;-51
2023/03/27 09:18:34;;;;;;;5.73;2.00;;;6.30;94.70;;;;;;5016636;28;20940;-53
2023/03/27 09:21:07;;;;;;;3.20;2.10;;;6.40;94.30;;;;;;5016098;28;20452;-53
2023/03/27 09:23:42;;;;;;;3.10;1.60;;;6.80;94.20;;;;;;5015850;28;20439;-53
2023/03/27 09:26:34;;;;;;;2.20;1.40;;;6.50;92.90;;;;;;5033080;28;20472;-52
2023/03/27 09:29:17;;;;;;;2.03;1.40;;;6.60;92.40;;;;;;5033716;28;20420;-51
2023/03/27 09:31:47;;;;;;;8.73;2.00;;;6.70;92.50;;;;;;5015533;28;20490;-54
2023/03/27 09:34:23;;;;;;;3.23;1.50;;;6.70;93.00;;;;;;5015457;28;20510;-52
2023/03/27 09:36:53;;;;;;;2.43;1.50;;;6.70;92.50;;;;;;5015159;28;20550;-51
2023/03/27 09:39:26;;;;;;;2.53;1.40;;;6.60;92.70;;;;;;5014967;28;20536;-50
2023/03/27 09:42:10;;;;;;;3.03;1.60;;;6.50;92.50;;;;;;5015046;28;20521;-53
2023/03/27 09:44:41;;;;;;;2.50;1.57;;;6.80;92.70;;;;;;5015228;28;20913;-53
2023/03/27 09:47:14;;;;;;;2.20;1.70;;;6.50;92.70;;;;;;5015559;28;20446;-50
2023/03/27 09:49:49;;;;;;;4.13;2.40;;;6.30;91.20;;;;;;5028602;28;20429;-51
2023/03/27 09:52:36;;;;;;;3.43;2.27;;;6.70;91.50;;;;;;5014325;28;20514;-52
2023/03/27 09:55:25;;;;;;;3.07;1.93;;;6.70;91.50;;;;;;5014661;28;20453;-53
2023/03/27 09:57:58;;;;;;;2.70;1.13;;;7.10;91.60;;;;;;5014814;28;20487;-52
2023/03/27 10:00:30;;;;;;;3.37;1.43;;;7.10;90.60;;;;;;5014493;28;20572;-52
2023/03/27 10:03:04;;;;;;;3.37;1.90;;;6.90;89.90;;;;;;5014592;28;20956;-52
2023/03/27 10:05:32;;;;;;;5.57;2.73;;;7.10;90.10;;;;;;5014452;28;20462;-53
2023/03/27 10:08:00;;;;;;;4.30;1.90;;;7.00;90.30;;;;;;5014586;28;20656;-52
2023/03/27 10:10:44;;;;;;;3.27;1.57;;;7.20;90.00;;;;;;5014088;28;20661;-52
2023/03/27 10:13:45;;;;;;;4.17;1.80;;;7.20;89.70;;;;;;5021381;28;20428;-52
2023/03/27 10:16:17;;;;;;;3.10;1.40;;;7.70;88.60;;;;;;5014460;28;20448;-51
2023/03/27 10:18:57;;;;;;;2.57;1.43;;;7.40;83.90;;;;;;5013940;28;20458;-50
2023/03/27 10:21:28;;;;;;;3.30;1.80;;;7.40;83.40;;;;;;5014037;28;20468;-50
2023/03/27 10:24:06;;;;;;;3.67;1.77;;;7.50;83.50;;;;;;5013908;28;20469;-52
2023/03/27 10:26:54;;;;;;;5.97;1.83;;;7.50;82.90;;;;;;5031369;28;20427;-52
2023/03/27 10:29:24;;;;;;;3.47;1.97;;;7.40;83.50;;;;;;5013065;28;20562;-51
2023/03/27 10:31:55;;;;;;;3.63;1.50;;;7.30;84.20;;;;;;5007216;28;20513;-51
2023/03/27 10:34:53;;;;;;;3.80;1.70;;;7.60;85.30;;;;;;5002157;28;20460;-51
2023/03/27 10:37:43;;;;;;;2.83;1.57;;;7.60;83.90;;;;;;5029784;28;20454;-52
2023/03/27 10:40:41;;;;;;;3.00;1.70;;;7.50;83.60;;;;;;5002710;28;20951;-50
2023/03/27 10:43:27;;;;;;;3.80;1.60;;;8.00;81.80;;;;;;5012703;28;20440;-52
2023/03/27 10:46:03;;;;;;;3.33;1.63;;;8.10;78.10;;;;;;5013507;28;20235;-53
2023/03/27 10:48:48;;;;;;;2.13;1.53;;;7.70;78.40;;;;;;5013299;28;20524;-51
2023/03/27 10:51:29;;;;;;;2.63;1.57;;;7.60;79.50;;;;;;5010501;28;20491;-52
2023/03/27 10:54:06;;;;;;;4.50;1.70;;;7.60;79.60;;;;;;4994487;28;20559;-50
2023/03/27 10:56:53;;;;;;;4.70;1.70;;;7.50;75.70;;;;;;4994311;28;20469;-52
2023/03/27 10:59:28;;;;;;;3.10;1.70;;;7.00;74.70;;;;;;4993701;28;20447;-52
2023/03/27 11:01:59;;;;;;;5.60;1.93;;;7.50;76.80;;;;;;4993823;28;20451;-53
2023/03/27 11:04:42;;;;;;;5.30;1.77;;;7.40;77.40;;;;;;4994881;28;20438;-52
2023/03/27 11:07:19;;;;;;;5.07;2.38;;;7.80;80.50;;;;;;5047960;23;20534;-47
2023/03/27 11:10:01;;;;;;;3.63;1.63;;;8.20;81.40;;;;;;5030102;28;20207;-47
2023/03/27 11:12:35;;;;;;;7.60;1.90;;;8.30;77.00;;;;;;5030382;28;20967;-47
2023/03/27 11:15:13;;;;;;;5.50;3.07;;;8.20;77.00;;;;;;5030207;28;20209;-47
2023/03/27 11:17:47;;;;;;;6.03;1.70;;;8.20;74.40;;;;;;5010341;28;20518;-51
2023/03/27 11:20:26;;;;;;;4.22;1.83;;;8.00;73.40;;;;;;5011140;28;20481;-48
2023/03/27 11:23:17;;;;;;;4.03;1.50;;;8.30;72.70;;;;;;5012120;28;20422;-49
2023/03/27 11:26:07;;;;;;;3.00;1.50;;;7.80;70.20;;;;;;5009927;28;20259;-47
2023/03/27 11:28:42;;;;;;;3.00;1.50;;;7.80;70.20;;;;;;5010157;28;20547;-53
2023/03/27 11:31:19;;;;;;;3.93;1.47;;;8.30;72.30;;;;;;5010083;28;20463;-50
2023/03/27 11:33:52;;;;;;;3.60;1.47;;;7.50;71.60;;;;;;5010324;28;20451;-48
2023/03/27 11:36:38;;;;;;;6.63;2.50;;;8.20;73.20;;;;;;5009784;28;20991;-45
2023/03/27 11:39:25;;;;;;;2.53;1.33;;;8.50;72.00;;;;;;5017712;28;20285;-47
2023/03/27 11:41:56;;;;;;;2.10;1.30;;;8.40;69.00;;;;;;5030469;28;20430;-47
2023/03/27 11:44:25;;;;;;;3.13;1.70;;;8.20;70.10;;;;;;5030340;28;20527;-48
2023/03/27 11:47:24;;;;;;;3.83;2.30;;;8.40;70.90;;;;;;5031640;28;20254;-47
2023/03/27 11:50:18;;;;;;;2.90;1.80;;;8.30;70.40;;;;;;5029253;28;20424;-47
2023/03/27 11:53:01;;;;;;;2.53;1.35;;;8.40;66.00;;;;;;5009522;28;20436;-47
2023/03/27 11:56:16;;;;;;;3.03;1.45;;;8.60;65.40;;;;;;4991072;28;20809;-46
2023/03/27 11:59:04;;;;;;;3.60;1.70;;;9.10;65.50;;;;;;4990187;28;20548;-47
2023/03/27 12:01:38;;;;;;;4.57;1.98;;;9.10;66.90;;;;;;4991497;28;20425;-47
2023/03/27 12:04:35;;;;;;;3.73;1.33;;;8.80;67.60;;;;;;4990798;28;20272;-48
2023/03/27 12:07:40;;;;;;;2.67;1.63;;;8.90;67.40;;;;;;4991824;28;20546;-48
2023/03/27 12:10:26;;;;;;;2.77;1.40;;;8.60;67.90;;;;;;4990662;28;20435;-47
2023/03/27 12:13:53;;;;;;;3.73;1.50;;;8.70;66.10;;;;;;4988164;28;20449;-49
2023/03/27 12:16:58;;;;;;;4.20;1.30;;;8.10;66.00;;;;;;4989192;28;20538;-49
2023/03/27 12:20:04;;;;;;;3.25;1.75;;;8.30;66.80;;;;;;4988932;28;20857;-47
2023/03/27 12:22:43;;;;;;;2.77;1.47;;;8.50;67.90;;;;;;4991189;28;20262;-44
2023/03/27 12:25:38;;;;;;;7.22;1.95;;;8.30;69.00;;;;;;4991194;28;20474;-49
2023/03/27 12:28:51;;;;;;;6.37;1.77;;;8.50;68.60;;;;;;4994736;28;20562;-47
2023/03/27 12:31:42;;;;;;;4.50;2.10;;;8.70;67.70;;;;;;4994005;28;20468;-47
2023/03/27 12:34:22;;;;;;;3.50;1.50;;;8.60;68.10;;;;;;4993712;28;20513;-48
2023/03/27 12:36:51;;;;;;;4.20;1.93;;;8.90;69.00;;;;;;4993418;28;20478;-48
2023/03/27 12:39:24;;;;;;;2.40;1.20;;;8.80;69.30;;;;;;5007928;28;20469;-47
2023/03/27 12:41:54;;;;;;;7.30;2.27;;;8.50;68.10;;;;;;5033159;28;20418;-49
2023/03/27 12:45:05;;;;;;;4.20;1.73;;;8.90;69.00;;;;;;5032444;28;20518;-48
2023/03/27 12:47:32;;;;;;;3.42;1.40;;;8.90;66.30;;;;;;5009913;28;20435;-47
2023/03/27 12:50:19;;;;;;;3.13;1.60;;;9.00;64.30;;;;;;4993274;28;20451;-46
2023/03/27 12:52:46;;;;;;;6.50;1.73;;;9.00;65.20;;;;;;4994277;28;20582;-47
2023/03/27 12:55:34;;;;;;;2.70;1.20;;;8.80;66.20;;;;;;4993852;28;20427;-47
2023/03/27 12:58:04;;;;;;;3.27;1.40;;;9.00;67.70;;;;;;4995366;28;20213;-48
2023/03/27 13:00:58;;;;;;;7.03;2.13;;;8.90;68.10;;;;;;4979280;28;20880;-48
2023/03/27 13:04:16;;;;;;;3.90;1.70;;;8.50;68.00;;;;;;4994738;28;20803;-46
2023/03/27 13:06:55;;;;;;;3.60;1.90;;;8.60;68.50;;;;;;4994228;28;20518;-46
2023/03/27 13:09:47;;;;;;;2.90;1.80;;;8.20;66.70;;;;;;4993546;28;20453;-46
2023/03/27 13:12:51;;;;;;;2.80;1.30;;;8.30;72.60;;;;;;4993635;28;20467;-48
2023/03/27 13:15:40;;;;;;;3.93;1.53;;;8.00;76.60;;;;;;4993952;28;20460;-46
2023/03/27 13:18:30;;;;;;;2.67;1.37;;;7.80;79.70;;;;;;4987093;28;20432;-48
2023/03/27 13:21:07;;;;;;;3.65;1.48;;;7.60;81.60;;;;;;4992205;28;20473;-48
2023/03/27 13:23:51;;;;;;;4.93;1.60;;;7.80;81.70;;;;;;4993471;28;20588;-47
2023/03/27 13:26:36;;;;;;;5.33;1.40;;;7.70;82.10;;;;;;4993475;28;20547;-48
2023/03/27 13:29:11;;;;;;;3.50;2.10;;;7.60;82.20;;;;;;4991677;28;20999;-47
2023/03/27 13:32:04;;;;;;;3.90;1.60;;;7.70;83.00;;;;;;4991419;28;20435;-48
2023/03/27 13:35:08;;;;;;;2.67;1.40;;;7.40;83.20;;;;;;4992694;28;20436;-47
2023/03/27 13:37:53;;;;;;;4.13;1.30;;;7.60;83.60;;;;;;4993606;28;20428;-47
2023/03/27 13:40:29;;;;;;;4.57;1.80;;;7.40;83.60;;;;;;4991779;28;20822;-47
2023/03/27 13:43:22;;;;;;;6.27;2.07;;;7.40;83.90;;;;;;4993050;28;20456;-47
2023/03/27 13:45:58;;;;;;;4.33;1.77;;;7.40;84.20;;;;;;4991969;28;20474;-47